Time;durP1;ratioP1;P1;durP2;ratioP2;P2;SDS_P1;SDS_P2;PMS_P1;PMS_P2;Temp;Humidity;BMP_temperature;BMP_pressure;BME280_temperature;BME280_humidity;BME280_pressure;Samples;Min_cycle;Max_cycle;Signal;HPM_P1;HPM_P2
2023/05/09 00:01:57;;;;;;;89.63;49.88;;;14.70;99.90;;;;;;4984193;28;20502;-72
2023/05/09 00:04:23;;;;;;;91.60;49.10;;;14.70;99.90;;;;;;4991402;28;20502;-72
2023/05/09 00:06:49;;;;;;;89.65;47.75;;;14.70;99.90;;;;;;4994593;28;20078;-73
2023/05/09 00:09:15;;;;;;;88.40;47.58;;;14.70;99.90;;;;;;4982243;28;20443;-72
2023/05/09 00:11:41;;;;;;;93.07;50.15;;;14.70;99.90;;;;;;4986337;28;20073;-73
2023/05/09 00:14:07;;;;;;;116.82;51.50;;;14.60;99.90;;;;;;4991708;28;20475;-72
2023/05/09 00:16:32;;;;;;;95.90;50.05;;;14.70;99.90;;;;;;4976500;28;20045;-72
2023/05/09 00:18:59;;;;;;;87.70;48.20;;;14.60;99.90;;;;;;4979284;28;20045;-72
2023/05/09 00:21:25;;;;;;;90.93;49.35;;;14.70;99.90;;;;;;4985332;28;20044;-73
2023/05/09 00:23:50;;;;;;;104.07;49.28;;;14.60;99.90;;;;;;4980629;28;20114;-73
2023/05/09 00:26:16;;;;;;;79.22;45.67;;;14.60;99.90;;;;;;4980686;28;20102;-73
2023/05/09 00:28:42;;;;;;;85.38;46.45;;;14.60;99.90;;;;;;5000877;28;20122;-73
2023/05/09 00:31:07;;;;;;;78.85;45.10;;;14.60;99.90;;;;;;4983082;28;20134;-72
2023/05/09 00:33:33;;;;;;;77.10;44.72;;;14.60;99.90;;;;;;4974910;28;20039;-73
2023/05/09 00:35:59;;;;;;;85.22;45.17;;;14.60;99.90;;;;;;4978930;28;20049;-73
2023/05/09 00:38:25;;;;;;;83.45;44.58;;;14.60;99.90;;;;;;4999010;28;20066;-73
2023/05/09 00:40:50;;;;;;;81.95;44.47;;;14.60;99.90;;;;;;4985084;28;20537;-73
2023/05/09 00:43:16;;;;;;;81.15;44.28;;;14.60;99.90;;;;;;4994005;28;20186;-73
2023/05/09 00:45:44;;;;;;;77.82;44.00;;;14.50;99.90;;;;;;4977100;28;20472;-73
2023/05/09 00:48:10;;;;;;;87.63;45.28;;;14.60;99.90;;;;;;4986033;28;20045;-71
2023/05/09 00:50:36;;;;;;;85.05;45.50;;;14.60;99.90;;;;;;4974371;28;20483;-73
2023/05/09 00:53:03;;;;;;;74.97;42.08;;;14.50;99.90;;;;;;4993655;28;20070;-73
2023/05/09 00:55:29;;;;;;;82.35;45.33;;;14.60;99.90;;;;;;4971538;28;20082;-73
2023/05/09 00:57:55;;;;;;;91.10;46.30;;;14.50;99.90;;;;;;4981962;28;20203;-73
2023/05/09 01:00:21;;;;;;;89.82;47.72;;;14.50;99.90;;;;;;4963098;28;20137;-73
2023/05/09 01:02:51;;;;;;;92.35;49.10;;;14.50;99.90;;;;;;4979390;28;20130;-73
2023/05/09 01:05:18;;;;;;;90.00;47.38;;;14.40;99.90;;;;;;4998255;28;20034;-74
2023/05/09 01:07:59;;;;;;;97.38;50.03;;;14.40;99.90;;;;;;4979649;28;20133;-74
2023/05/09 01:10:32;;;;;;;97.25;48.75;;;14.40;99.90;;;;;;4991429;28;20117;-73
2023/05/09 01:13:04;;;;;;;111.20;49.57;;;14.40;99.90;;;;;;4995129;28;20038;-73
2023/05/09 01:15:33;;;;;;;111.35;50.85;;;14.40;99.90;;;;;;4986059;28;20045;-73
2023/05/09 01:18:17;;;;;;;98.68;49.53;;;14.50;99.90;;;;;;4997648;28;20052;-73
2023/05/09 01:21:02;;;;;;;100.10;49.42;;;14.40;99.90;;;;;;4996319;28;20375;-73
2023/05/09 01:23:43;;;;;;;101.63;50.60;;;14.40;99.90;;;;;;4997457;28;20045;-74
2023/05/09 01:26:12;;;;;;;93.95;48.97;;;14.40;99.90;;;;;;4994225;28;20039;-74
2023/05/09 01:29:15;;;;;;;111.60;50.75;;;14.40;99.90;;;;;;4995080;28;20035;-74
2023/05/09 01:31:44;;;;;;;103.10;50.33;;;14.40;99.90;;;;;;4974427;28;20054;-73
2023/05/09 01:34:10;;;;;;;103.95;50.72;;;14.30;99.90;;;;;;4981904;28;20053;-73
2023/05/09 01:36:38;;;;;;;100.43;51.13;;;14.30;99.90;;;;;;4979942;28;20069;-73
2023/05/09 01:39:06;;;;;;;99.13;49.42;;;14.30;99.90;;;;;;4979563;28;20106;-73
2023/05/09 01:41:36;;;;;;;116.53;52.03;;;14.30;99.90;;;;;;4976526;28;20539;-73
2023/05/09 01:44:05;;;;;;;96.30;49.40;;;14.30;99.90;;;;;;4981842;28;20505;-73
2023/05/09 01:46:32;;;;;;;93.60;48.13;;;14.20;99.90;;;;;;4991921;28;20521;-73
2023/05/09 01:49:00;;;;;;;94.80;48.50;;;14.20;99.90;;;;;;4981626;28;20042;-73
2023/05/09 01:51:27;;;;;;;100.72;48.88;;;14.20;99.90;;;;;;4994335;28;20042;-73
2023/05/09 01:53:55;;;;;;;113.90;48.97;;;14.20;99.90;;;;;;4995240;28;20042;-73
2023/05/09 01:56:23;;;;;;;92.38;47.92;;;14.20;99.90;;;;;;5000287;28;20049;-73
2023/05/09 01:58:50;;;;;;;98.32;48.65;;;14.20;99.90;;;;;;4983953;28;20132;-73
2023/05/09 02:01:17;;;;;;;103.13;50.22;;;14.20;99.90;;;;;;4982219;28;20447;-73
2023/05/09 02:03:45;;;;;;;117.63;51.67;;;14.20;99.90;;;;;;4995487;28;20133;-73
2023/05/09 02:06:12;;;;;;;100.07;49.03;;;14.10;99.90;;;;;;5001478;28;20126;-73
2023/05/09 02:08:39;;;;;;;104.22;51.17;;;14.10;99.90;;;;;;4980846;28;20038;-73
2023/05/09 02:11:06;;;;;;;112.72;50.10;;;14.10;99.90;;;;;;4994737;28;20053;-73
2023/05/09 02:13:32;;;;;;;132.05;52.17;;;14.10;99.90;;;;;;4978271;28;20122;-73
2023/05/09 02:15:59;;;;;;;144.63;52.97;;;14.10;99.90;;;;;;4983663;28;20042;-74
2023/05/09 02:18:26;;;;;;;110.10;49.50;;;14.10;99.90;;;;;;4973680;28;20118;-73
2023/05/09 02:20:52;;;;;;;104.43;48.35;;;14.00;99.90;;;;;;4995024;28;20492;-73
2023/05/09 02:23:18;;;;;;;112.57;51.42;;;14.10;99.90;;;;;;4996721;28;20038;-74
2023/05/09 02:25:45;;;;;;;105.60;50.50;;;14.00;99.90;;;;;;4999210;28;20453;-74
2023/05/09 02:28:11;;;;;;;99.28;47.80;;;14.00;99.90;;;;;;4976528;28;20109;-73
2023/05/09 02:30:43;;;;;;;95.63;47.53;;;14.10;99.90;;;;;;4978604;28;20034;-73
2023/05/09 02:33:11;;;;;;;102.60;49.40;;;14.10;99.90;;;;;;4995155;28;20054;-73
2023/05/09 02:35:40;;;;;;;107.45;48.22;;;14.10;99.90;;;;;;4980627;28;20038;-74
2023/05/09 02:38:06;;;;;;;99.28;48.42;;;14.10;99.90;;;;;;4975864;28;20063;-74
2023/05/09 02:40:33;;;;;;;115.10;49.30;;;14.10;99.90;;;;;;4986998;28;20054;-73
2023/05/09 02:42:58;;;;;;;93.45;47.22;;;14.10;99.90;;;;;;5002238;28;20376;-72
2023/05/09 02:45:24;;;;;;;106.82;50.40;;;14.10;99.90;;;;;;4995174;28;20100;-72
2023/05/09 02:47:50;;;;;;;139.20;52.97;;;14.10;99.90;;;;;;4974095;28;20038;-71
2023/05/09 02:50:16;;;;;;;138.30;51.33;;;14.10;99.90;;;;;;5001865;28;20053;-73
2023/05/09 02:52:42;;;;;;;124.43;50.28;;;14.10;99.90;;;;;;4981467;28;20048;-73
2023/05/09 02:55:08;;;;;;;103.65;49.60;;;14.10;99.90;;;;;;4975532;28;20042;-72
2023/05/09 02:57:34;;;;;;;95.82;47.80;;;14.10;99.90;;;;;;4980117;28;20483;-72
2023/05/09 03:00:00;;;;;;;99.35;47.90;;;14.10;99.90;;;;;;4985302;28;20188;-72
2023/05/09 03:02:25;;;;;;;90.00;47.28;;;14.10;99.90;;;;;;4998492;28;20047;-72
2023/05/09 03:04:51;;;;;;;116.03;50.53;;;14.20;99.90;;;;;;4980058;28;20153;-72
2023/05/09 03:07:17;;;;;;;104.72;48.50;;;14.20;99.90;;;;;;4979984;28;20035;-72
2023/05/09 03:09:42;;;;;;;102.70;48.83;;;14.10;99.90;;;;;;4983824;28;20109;-72
2023/05/09 03:12:08;;;;;;;126.63;52.15;;;14.20;99.90;;;;;;4981487;28;20046;-72
2023/05/09 03:14:34;;;;;;;119.07;51.22;;;14.20;99.90;;;;;;4977794;28;20069;-73
2023/05/09 03:16:59;;;;;;;121.05;51.60;;;14.10;99.90;;;;;;4982507;28;20047;-72
2023/05/09 03:19:25;;;;;;;111.82;52.03;;;14.20;99.90;;;;;;4982118;28;20499;-72
2023/05/09 03:21:51;;;;;;;135.32;53.45;;;14.20;99.90;;;;;;4965503;28;20526;-72
2023/05/09 03:24:16;;;;;;;132.80;53.13;;;14.20;99.90;;;;;;4976651;28;20138;-72
2023/05/09 03:26:42;;;;;;;123.40;52.58;;;14.20;99.90;;;;;;4997991;28;20486;-72
2023/05/09 03:29:08;;;;;;;188.85;58.05;;;14.20;99.90;;;;;;4989178;28;20046;-72
2023/05/09 03:31:33;;;;;;;136.57;52.08;;;14.30;99.90;;;;;;5002100;28;20146;-72
2023/05/09 03:33:59;;;;;;;124.90;53.67;;;14.30;99.90;;;;;;4998188;28;20045;-72
2023/05/09 03:36:25;;;;;;;118.53;51.22;;;14.30;99.90;;;;;;4977002;28;20470;-72
2023/05/09 03:38:51;;;;;;;127.95;53.83;;;14.30;99.90;;;;;;5000732;28;20604;-72
2023/05/09 03:41:17;;;;;;;127.30;53.40;;;14.30;99.90;;;;;;4976907;28;20510;-72
2023/05/09 03:43:43;;;;;;;134.73;54.72;;;14.30;99.90;;;;;;4983343;28;20038;-72
2023/05/09 03:46:09;;;;;;;122.78;53.30;;;14.30;99.90;;;;;;4972034;28;20088;-72
2023/05/09 03:48:35;;;;;;;112.85;52.58;;;14.30;99.90;;;;;;4982994;28;20130;-72
2023/05/09 03:51:01;;;;;;;116.70;53.30;;;14.30;99.90;;;;;;4978597;28;20156;-72
2023/05/09 03:53:27;;;;;;;132.02;56.92;;;14.30;99.90;;;;;;4979233;28;20053;-72
2023/05/09 03:55:53;;;;;;;144.93;59.22;;;14.40;99.90;;;;;;4999434;28;20085;-72
2023/05/09 03:58:18;;;;;;;138.25;56.92;;;14.40;99.90;;;;;;4984753;28;20074;-72
2023/05/09 04:00:45;;;;;;;174.70;60.13;;;14.40;99.90;;;;;;4981965;28;20495;-72
2023/05/09 04:03:10;;;;;;;137.23;57.72;;;14.40;99.90;;;;;;4982188;28;20050;-72
2023/05/09 04:05:36;;;;;;;231.07;64.78;;;14.50;99.90;;;;;;4982840;28;20038;-72
2023/05/09 04:08:03;;;;;;;222.02;67.82;;;14.50;99.90;;;;;;5000435;28;20477;-72
2023/05/09 04:10:30;;;;;;;216.30;69.15;;;14.50;99.90;;;;;;4987860;28;20048;-72
2023/05/09 04:12:56;;;;;;;154.60;63.42;;;14.50;99.90;;;;;;4983712;28;20046;-72
2023/05/09 04:15:22;;;;;;;169.50;65.20;;;14.50;99.90;;;;;;4998763;28;20550;-73
2023/05/09 04:17:47;;;;;;;292.42;75.95;;;14.50;99.90;;;;;;4977516;28;20490;-72
2023/05/09 04:20:13;;;;;;;353.00;78.18;;;14.60;99.90;;;;;;4981691;28;20130;-72
2023/05/09 04:22:39;;;;;;;378.85;81.85;;;14.60;99.90;;;;;;4975124;28;20046;-72
2023/05/09 04:25:06;;;;;;;289.20;76.10;;;14.60;99.90;;;;;;4981540;28;20363;-72
2023/05/09 04:27:31;;;;;;;402.65;82.57;;;14.60;99.90;;;;;;4982924;28;20490;-72
2023/05/09 04:29:57;;;;;;;303.75;81.30;;;14.60;99.90;;;;;;4980258;28;20068;-72
2023/05/09 04:32:23;;;;;;;250.65;76.00;;;14.60;99.90;;;;;;4975640;28;20042;-72
2023/05/09 04:34:49;;;;;;;311.40;81.35;;;14.60;99.90;;;;;;4982237;28;20038;-72
2023/05/09 04:37:14;;;;;;;309.17;78.03;;;14.70;99.90;;;;;;4983707;28;20062;-72
2023/05/09 04:39:40;;;;;;;375.48;82.65;;;14.70;99.90;;;;;;4979751;28;20447;-72
2023/05/09 04:42:06;;;;;;;420.48;88.15;;;14.70;99.90;;;;;;4998747;28;20039;-72
2023/05/09 04:44:32;;;;;;;302.25;79.25;;;14.80;99.90;;;;;;4983299;28;20034;-72
2023/05/09 04:46:58;;;;;;;293.30;76.93;;;14.70;99.90;;;;;;4982423;28;20038;-73
2023/05/09 04:49:24;;;;;;;413.50;88.07;;;14.80;99.90;;;;;;4964979;28;20047;-72
2023/05/09 04:51:52;;;;;;;299.08;80.18;;;14.80;99.90;;;;;;4975045;28;20141;-72
2023/05/09 04:54:18;;;;;;;260.05;79.90;;;14.80;99.90;;;;;;4984098;28;20377;-72
2023/05/09 04:56:44;;;;;;;262.25;76.78;;;14.80;99.90;;;;;;4981910;28;20038;-73
2023/05/09 04:59:09;;;;;;;262.15;78.00;;;14.90;99.90;;;;;;4975704;28;20065;-72
2023/05/09 05:01:35;;;;;;;243.20;74.97;;;14.90;99.90;;;;;;5000060;28;20046;-72
2023/05/09 05:04:01;;;;;;;235.10;77.38;;;14.90;99.90;;;;;;4999880;28;20034;-73
2023/05/09 05:06:26;;;;;;;286.33;84.90;;;14.90;99.90;;;;;;4988349;28;20042;-73
2023/05/09 05:08:52;;;;;;;244.07;78.18;;;14.90;99.90;;;;;;4973468;28;20367;-73
2023/05/09 05:11:19;;;;;;;290.70;84.35;;;14.90;99.90;;;;;;4993319;28;20133;-73
2023/05/09 05:13:45;;;;;;;198.70;77.07;;;14.90;99.90;;;;;;4978531;28;20398;-72
2023/05/09 05:16:10;;;;;;;246.95;80.95;;;14.90;99.90;;;;;;4985743;28;20050;-72
2023/05/09 05:18:36;;;;;;;245.63;83.13;;;14.90;99.90;;;;;;4993812;28;20074;-73
2023/05/09 05:21:02;;;;;;;212.55;80.05;;;15.00;99.90;;;;;;4964452;28;20355;-72
2023/05/09 05:23:28;;;;;;;224.75;82.53;;;15.00;99.90;;;;;;4992141;28;20066;-72
2023/05/09 05:25:53;;;;;;;235.70;88.53;;;15.10;99.90;;;;;;4984398;28;20042;-72
2023/05/09 05:28:19;;;;;;;220.60;89.43;;;15.10;99.90;;;;;;4996613;28;20053;-72
2023/05/09 05:30:45;;;;;;;282.65;94.85;;;15.10;99.90;;;;;;5001155;28;20084;-73
2023/05/09 05:33:10;;;;;;;262.40;94.10;;;15.10;99.90;;;;;;4999005;28;20482;-72
2023/05/09 05:35:36;;;;;;;212.50;88.43;;;15.10;99.90;;;;;;4996587;28;20042;-72
2023/05/09 05:38:02;;;;;;;218.65;90.55;;;15.20;99.90;;;;;;4975777;28;20059;-72
2023/05/09 05:40:28;;;;;;;228.13;87.72;;;15.20;99.90;;;;;;5002420;28;20043;-72
2023/05/09 05:42:53;;;;;;;228.18;92.13;;;15.30;99.90;;;;;;5000970;28;20399;-72
2023/05/09 05:45:19;;;;;;;191.60;87.43;;;15.30;99.90;;;;;;4981448;28;20039;-72
2023/05/09 05:47:45;;;;;;;213.70;86.68;;;15.30;99.90;;;;;;4984099;28;20042;-72
2023/05/09 05:50:13;;;;;;;188.75;83.25;;;15.30;99.90;;;;;;5001989;28;20108;-72
2023/05/09 05:52:43;;;;;;;162.68;80.75;;;15.40;99.90;;;;;;4985287;28;20057;-72
2023/05/09 05:55:08;;;;;;;162.77;78.50;;;15.40;99.90;;;;;;5001388;28;20042;-72
2023/05/09 05:57:36;;;;;;;149.30;75.97;;;15.50;99.90;;;;;;5000098;28;20069;-72
2023/05/09 06:00:06;;;;;;;156.52;75.22;;;15.50;99.90;;;;;;4999631;28;20502;-73
2023/05/09 06:02:31;;;;;;;140.02;72.85;;;15.60;99.90;;;;;;4997402;28;20038;-72
2023/05/09 06:04:57;;;;;;;141.02;76.32;;;15.60;99.90;;;;;;4985442;28;20039;-72
2023/05/09 06:07:23;;;;;;;118.93;69.35;;;15.60;99.90;;;;;;4985135;28;20117;-72
2023/05/09 06:09:48;;;;;;;168.43;76.03;;;15.60;99.90;;;;;;4988452;28;20387;-72
2023/05/09 06:12:15;;;;;;;121.63;70.85;;;15.60;99.90;;;;;;4981837;28;20525;-72
2023/05/09 06:14:42;;;;;;;116.70;68.43;;;15.70;99.90;;;;;;4999127;28;20592;-71
2023/05/09 06:17:08;;;;;;;104.47;65.07;;;15.70;99.90;;;;;;4980307;28;20046;-72
2023/05/09 06:19:33;;;;;;;102.03;62.35;;;15.70;99.90;;;;;;4982530;28;20073;-71
2023/05/09 06:21:59;;;;;;;92.00;58.88;;;15.70;99.90;;;;;;4979186;28;20039;-71
2023/05/09 06:24:25;;;;;;;85.70;55.75;;;15.80;99.90;;;;;;4995959;28;20510;-72
2023/05/09 06:26:51;;;;;;;78.93;51.85;;;15.70;99.90;;;;;;4985385;28;20494;-71
2023/05/09 06:29:17;;;;;;;78.40;51.85;;;15.70;99.90;;;;;;4988288;28;20125;-72
2023/05/09 06:31:42;;;;;;;86.97;55.10;;;15.70;99.90;;;;;;5001796;28;20042;-71
2023/05/09 06:34:08;;;;;;;76.05;50.50;;;15.70;99.90;;;;;;5007654;28;20034;-71
2023/05/09 06:36:34;;;;;;;63.50;47.58;;;15.70;99.90;;;;;;4996538;28;20038;-72
2023/05/09 06:39:00;;;;;;;72.57;48.40;;;15.70;99.90;;;;;;4999354;28;20055;-72
2023/05/09 06:41:26;;;;;;;63.90;46.55;;;15.70;99.90;;;;;;4981753;28;20525;-71
2023/05/09 06:43:52;;;;;;;69.95;48.03;;;15.70;99.90;;;;;;4996947;28;20046;-74
2023/05/09 06:46:18;;;;;;;66.68;45.97;;;15.70;99.90;;;;;;4977487;28;20487;-74
2023/05/09 06:48:43;;;;;;;61.78;46.92;;;15.70;99.90;;;;;;5001925;28;20122;-74
2023/05/09 06:51:10;;;;;;;63.15;47.63;;;15.70;99.90;;;;;;4988095;28;20465;-75
2023/05/09 06:53:36;;;;;;;64.40;47.45;;;15.70;99.90;;;;;;5000464;28;20553;-75
2023/05/09 06:56:02;;;;;;;67.20;49.05;;;15.60;99.90;;;;;;4991095;28;20157;-74
2023/05/09 06:58:28;;;;;;;74.40;48.08;;;15.60;99.90;;;;;;4983940;28;20096;-74
2023/05/09 07:00:53;;;;;;;62.63;44.78;;;15.60;99.90;;;;;;4999611;28;20041;-74
2023/05/09 07:03:19;;;;;;;74.28;49.20;;;15.60;99.90;;;;;;4975166;28;20073;-74
2023/05/09 07:05:45;;;;;;;63.90;47.17;;;15.70;99.90;;;;;;5016101;28;20038;-73
2023/05/09 07:08:11;;;;;;;64.18;45.70;;;15.70;99.90;;;;;;5000805;28;20075;-74
2023/05/09 07:10:37;;;;;;;68.22;48.55;;;15.70;99.90;;;;;;4989380;28;20054;-74
2023/05/09 07:13:03;;;;;;;69.95;47.72;;;15.70;99.90;;;;;;4983114;28;20097;-74
2023/05/09 07:15:29;;;;;;;68.03;49.38;;;15.70;99.90;;;;;;4997433;28;20039;-74
2023/05/09 07:17:55;;;;;;;76.63;50.65;;;15.90;99.90;;;;;;4979560;28;20113;-74
2023/05/09 07:20:20;;;;;;;80.55;50.88;;;16.00;99.90;;;;;;4979934;28;20077;-74
2023/05/09 07:22:46;;;;;;;71.07;48.75;;;16.20;99.90;;;;;;4977033;28;20490;-74
2023/05/09 07:25:12;;;;;;;75.78;50.33;;;16.30;99.90;;;;;;4982867;28;20034;-74
2023/05/09 07:27:38;;;;;;;78.45;50.60;;;16.30;99.90;;;;;;5000025;28;20529;-74
2023/05/09 07:30:04;;;;;;;68.60;47.05;;;16.40;99.90;;;;;;4984051;28;20104;-74
2023/05/09 07:32:30;;;;;;;70.68;47.78;;;16.40;99.90;;;;;;4979807;28;20135;-74
2023/05/09 07:34:56;;;;;;;74.25;48.42;;;16.40;99.90;;;;;;4980718;28;20471;-74
2023/05/09 07:37:21;;;;;;;70.72;49.35;;;16.40;99.90;;;;;;4988730;28;20062;-74
2023/05/09 07:39:47;;;;;;;65.47;48.50;;;16.50;99.90;;;;;;4999178;28;20034;-74
2023/05/09 07:42:13;;;;;;;70.07;48.45;;;16.60;99.90;;;;;;4979343;28;20044;-74
2023/05/09 07:44:39;;;;;;;63.53;48.10;;;16.60;99.90;;;;;;4994390;28;20046;-74
2023/05/09 07:47:04;;;;;;;62.63;46.00;;;16.60;99.90;;;;;;4981811;28;20124;-73
2023/05/09 07:49:31;;;;;;;62.47;44.47;;;16.60;99.90;;;;;;4976225;28;20133;-74
2023/05/09 07:51:57;;;;;;;63.45;46.25;;;16.50;99.90;;;;;;4983670;28;20082;-74
2023/05/09 07:54:22;;;;;;;63.88;46.58;;;16.50;99.90;;;;;;4989001;28;20469;-74
2023/05/09 07:56:48;;;;;;;68.43;48.72;;;16.50;99.90;;;;;;4986032;28;20049;-73
2023/05/09 07:59:14;;;;;;;63.08;47.58;;;16.50;99.90;;;;;;4978601;28;20550;-73
2023/05/09 08:01:40;;;;;;;60.38;45.88;;;16.50;99.90;;;;;;4985501;28;20047;-73
2023/05/09 08:04:07;;;;;;;69.30;50.55;;;16.60;99.90;;;;;;4982173;28;20050;-74
2023/05/09 08:06:33;;;;;;;64.47;46.92;;;16.60;99.90;;;;;;4984507;28;20616;-73
2023/05/09 08:08:59;;;;;;;65.30;46.60;;;16.70;99.90;;;;;;4983091;28;20093;-73
2023/05/09 08:11:25;;;;;;;70.38;50.30;;;16.70;99.90;;;;;;4981418;28;20050;-73
2023/05/09 08:13:51;;;;;;;65.53;47.67;;;16.70;99.90;;;;;;5000119;28;20038;-73
2023/05/09 08:16:17;;;;;;;63.20;46.20;;;16.70;99.90;;;;;;4986290;28;20054;-73
2023/05/09 08:18:43;;;;;;;64.85;48.78;;;16.80;99.90;;;;;;4997959;28;20129;-73
2023/05/09 08:21:08;;;;;;;59.00;46.53;;;16.80;99.90;;;;;;5000549;28;20082;-73
2023/05/09 08:23:34;;;;;;;65.82;47.72;;;16.90;99.90;;;;;;4983729;28;20383;-73
2023/05/09 08:26:00;;;;;;;60.80;45.83;;;16.90;99.90;;;;;;4995630;28;20070;-73
2023/05/09 08:28:27;;;;;;;57.97;44.10;;;16.90;99.90;;;;;;4988458;28;20026;-73
2023/05/09 08:30:53;;;;;;;57.97;44.15;;;16.90;99.90;;;;;;5003530;28;20060;-73
2023/05/09 08:33:19;;;;;;;58.03;42.20;;;17.00;99.90;;;;;;4998140;28;20094;-73
2023/05/09 08:35:50;;;;;;;58.45;42.53;;;17.00;99.90;;;;;;4984213;28;20867;-73
2023/05/09 08:38:16;;;;;;;51.47;40.40;;;17.10;99.90;;;;;;5001336;28;20050;-73
2023/05/09 08:40:42;;;;;;;54.58;39.60;;;17.10;99.90;;;;;;4985822;28;20077;-72
2023/05/09 08:43:07;;;;;;;56.60;41.15;;;17.20;99.90;;;;;;4998543;28;20354;-72
2023/05/09 08:46:02;;;;;;;55.45;40.05;;;17.30;99.90;;;;;;4985742;28;20078;-72
2023/05/09 08:48:28;;;;;;;53.08;40.50;;;17.40;99.90;;;;;;4977260;28;20406;-73
2023/05/09 08:50:55;;;;;;;48.85;38.53;;;17.50;99.90;;;;;;5001514;28;20113;-72
2023/05/09 08:53:21;;;;;;;49.42;37.63;;;17.50;99.90;;;;;;4981322;28;20082;-73
2023/05/09 08:55:48;;;;;;;48.20;37.63;;;17.50;99.90;;;;;;4984546;28;20041;-73
2023/05/09 08:58:15;;;;;;;46.47;37.78;;;17.50;99.90;;;;;;4977756;28;20050;-73
2023/05/09 09:00:41;;;;;;;49.97;38.10;;;17.50;99.90;;;;;;4980192;28;20100;-73
2023/05/09 09:03:07;;;;;;;45.60;36.75;;;17.50;99.90;;;;;;4967309;28;20518;-73
2023/05/09 09:05:36;;;;;;;47.25;36.42;;;17.60;99.90;;;;;;4979520;28;20035;-73
2023/05/09 09:08:06;;;;;;;44.13;35.42;;;17.70;99.90;;;;;;4975115;28;20134;-73
2023/05/09 09:10:32;;;;;;;49.00;35.22;;;17.70;99.90;;;;;;4971829;28;20053;-72
2023/05/09 09:13:03;;;;;;;46.67;34.72;;;17.70;99.90;;;;;;4981239;28;20128;-72
2023/05/09 09:15:34;;;;;;;44.83;34.38;;;17.70;99.90;;;;;;5000632;28;20034;-72
2023/05/09 09:18:06;;;;;;;43.28;33.88;;;17.70;99.90;;;;;;4988412;28;20823;-72
2023/05/09 09:20:33;;;;;;;40.53;33.33;;;17.70;99.90;;;;;;5004627;28;20044;-72
2023/05/09 09:23:01;;;;;;;43.05;34.60;;;17.60;99.90;;;;;;4987031;28;20137;-72
2023/05/09 09:25:27;;;;;;;43.38;33.08;;;17.60;99.90;;;;;;4984957;28;20505;-73
2023/05/09 09:27:53;;;;;;;40.13;32.65;;;17.70;99.90;;;;;;5000583;28;20046;-73
2023/05/09 09:30:18;;;;;;;39.50;31.67;;;17.80;99.90;;;;;;4987873;28;20050;-73
2023/05/09 09:32:44;;;;;;;36.35;31.27;;;17.90;99.90;;;;;;4982883;28;20517;-73
2023/05/09 09:35:10;;;;;;;37.03;31.77;;;18.00;99.90;;;;;;4980263;28;20495;-73
2023/05/09 09:37:44;;;;;;;37.75;29.55;;;18.20;99.90;;;;;;5001722;28;20063;-73
2023/05/09 09:40:11;;;;;;;33.67;28.60;;;18.50;99.90;;;;;;5002719;28;20035;-73
2023/05/09 09:42:45;;;;;;;31.63;27.25;;;18.60;99.90;;;;;;4987305;28;20092;-72
2023/05/09 09:45:16;;;;;;;31.55;27.80;;;18.70;99.90;;;;;;5000668;28;20163;-73
2023/05/09 09:47:45;;;;;;;32.17;28.67;;;18.70;99.90;;;;;;5002193;28;20064;-73
2023/05/09 09:50:15;;;;;;;29.23;25.85;;;18.80;99.90;;;;;;4987347;28;20050;-73
2023/05/09 09:52:48;;;;;;;28.52;24.65;;;18.90;99.90;;;;;;4986612;28;20081;-73
2023/05/09 09:55:15;;;;;;;30.48;26.42;;;19.00;99.90;;;;;;5000977;28;20507;-73
2023/05/09 09:57:43;;;;;;;31.27;26.27;;;19.00;99.90;;;;;;4986508;28;20409;-73
2023/05/09 10:00:10;;;;;;;32.85;29.25;;;19.10;99.90;;;;;;5004082;28;20038;-74
2023/05/09 10:02:48;;;;;;;31.45;27.95;;;19.10;99.90;;;;;;4984716;28;20035;-73
2023/05/09 10:05:21;;;;;;;29.33;25.45;;;19.20;99.90;;;;;;4999613;28;20194;-74
2023/05/09 10:07:54;;;;;;;28.27;25.20;;;19.40;99.90;;;;;;4986132;28;20039;-74
2023/05/09 10:10:20;;;;;;;23.92;20.27;;;19.50;99.90;;;;;;4987175;28;20046;-74
2023/05/09 10:12:47;;;;;;;24.33;21.73;;;19.50;99.90;;;;;;4986764;28;20058;-74
2023/05/09 10:15:17;;;;;;;24.38;21.88;;;19.60;99.90;;;;;;4985018;28;20403;-74
2023/05/09 10:17:43;;;;;;;25.13;22.27;;;19.60;99.90;;;;;;4981045;28;20041;-74
2023/05/09 10:20:11;;;;;;;24.00;21.45;;;19.60;99.90;;;;;;5003183;28;20038;-74
2023/05/09 10:22:39;;;;;;;23.85;21.40;;;19.70;99.90;;;;;;5018082;28;20553;-74
2023/05/09 10:25:12;;;;;;;24.67;21.23;;;19.70;99.90;;;;;;4995694;28;20077;-74
2023/05/09 10:27:43;;;;;;;25.42;22.10;;;19.70;99.90;;;;;;4999628;28;20043;-74
2023/05/09 10:30:21;;;;;;;28.38;23.85;;;19.70;99.90;;;;;;4980598;28;20082;-74
2023/05/09 10:33:01;;;;;;;25.85;21.67;;;19.70;99.90;;;;;;4982515;28;20061;-74
2023/05/09 10:35:32;;;;;;;24.55;22.05;;;19.80;99.90;;;;;;4977358;28;20048;-75
2023/05/09 10:38:00;;;;;;;26.40;22.25;;;19.70;99.90;;;;;;4980207;28;20073;-74
2023/05/09 10:40:27;;;;;;;26.02;22.55;;;19.70;99.90;;;;;;4992000;28;20108;-75
2023/05/09 10:42:52;;;;;;;24.05;21.65;;;19.70;99.90;;;;;;4965711;28;20038;-75
2023/05/09 10:45:22;;;;;;;22.95;20.65;;;19.70;99.90;;;;;;4996514;28;20045;-75
2023/05/09 10:47:51;;;;;;;23.45;20.80;;;19.80;99.90;;;;;;4999069;28;20042;-75
2023/05/09 10:50:17;;;;;;;23.77;21.02;;;19.80;99.90;;;;;;4972897;28;20042;-75
2023/05/09 10:53:13;;;;;;;22.58;20.27;;;19.80;99.90;;;;;;4985202;28;20125;-75
2023/05/09 10:55:59;;;;;;;22.40;20.02;;;19.80;99.90;;;;;;4995383;28;20128;-75
2023/05/09 10:58:27;;;;;;;17.63;15.93;;;19.90;99.90;;;;;;4983523;28;20034;-76
2023/05/09 11:00:55;;;;;;;15.90;14.25;;;20.00;99.90;;;;;;4989843;28;20038;-75
2023/05/09 11:03:22;;;;;;;13.65;12.23;;;20.00;99.90;;;;;;4984813;28;20041;-75
2023/05/09 11:05:50;;;;;;;14.05;11.98;;;20.00;99.90;;;;;;4990040;28;20041;-75
2023/05/09 11:08:25;;;;;;;14.43;12.15;;;20.00;99.90;;;;;;4989431;28;20490;-76
2023/05/09 11:10:56;;;;;;;13.90;12.48;;;20.00;99.90;;;;;;4985344;28;20046;-76
2023/05/09 11:13:24;;;;;;;13.63;12.20;;;20.00;99.90;;;;;;5004985;28;20189;-75
2023/05/09 11:15:59;;;;;;;15.35;12.68;;;19.90;99.90;;;;;;4990731;28;20104;-75
2023/05/09 11:18:25;;;;;;;14.10;12.57;;;19.80;99.90;;;;;;4986877;28;20049;-76
2023/05/09 11:20:51;;;;;;;12.30;10.90;;;19.80;99.90;;;;;;5004831;28;20034;-76
2023/05/09 11:23:24;;;;;;;12.68;11.10;;;19.70;99.90;;;;;;4973360;28;20046;-75
2023/05/09 11:25:50;;;;;;;11.25;10.15;;;19.80;99.90;;;;;;4990381;28;20034;-75
2023/05/09 11:28:27;;;;;;;14.82;11.70;;;19.90;99.90;;;;;;4986199;28;20043;-76
2023/05/09 11:31:07;;;;;;;12.70;11.40;;;20.00;99.90;;;;;;4986191;28;20046;-76
2023/05/09 11:33:35;;;;;;;14.23;11.73;;;20.00;99.90;;;;;;5000826;28;20050;-76
2023/05/09 11:36:18;;;;;;;12.43;10.90;;;20.10;99.90;;;;;;5000909;28;20042;-76
2023/05/09 11:38:47;;;;;;;12.20;10.60;;;20.20;99.90;;;;;;4985950;28;20054;-76
2023/05/09 11:41:14;;;;;;;11.68;10.32;;;20.30;99.90;;;;;;4979184;28;20047;-76
2023/05/09 11:43:41;;;;;;;12.00;10.50;;;20.30;99.90;;;;;;4983346;28;20042;-76
2023/05/09 11:46:07;;;;;;;13.63;11.05;;;20.50;99.90;;;;;;4988793;28;20066;-76
2023/05/09 11:48:37;;;;;;;11.48;10.30;;;20.60;99.90;;;;;;4984553;28;20120;-76
2023/05/09 11:51:03;;;;;;;12.30;10.88;;;20.70;99.90;;;;;;4982052;28;20053;-76
2023/05/09 11:53:29;;;;;;;11.20;10.10;;;20.70;99.90;;;;;;4984311;28;20030;-76
2023/05/09 11:55:55;;;;;;;11.48;10.27;;;20.70;99.90;;;;;;4981034;28;20152;-76
2023/05/09 11:58:20;;;;;;;12.35;11.15;;;20.80;99.90;;;;;;4977762;28;20042;-76
2023/05/09 12:00:46;;;;;;;12.65;11.07;;;20.80;99.90;;;;;;4981024;28;20039;-76
2023/05/09 12:03:12;;;;;;;13.70;12.02;;;20.80;99.90;;;;;;4981865;28;20077;-76
2023/05/09 12:05:39;;;;;;;13.60;12.38;;;20.90;99.90;;;;;;4981209;28;20499;-76
2023/05/09 12:08:08;;;;;;;13.45;12.05;;;20.90;99.90;;;;;;4964358;28;20413;-76
2023/05/09 12:10:38;;;;;;;14.77;11.63;;;20.90;99.90;;;;;;4984038;28;20074;-76
2023/05/09 12:13:04;;;;;;;12.70;11.43;;;20.90;99.90;;;;;;4974655;28;20046;-77
2023/05/09 12:15:36;;;;;;;12.35;11.10;;;20.90;99.90;;;;;;4987192;28;20046;-77
2023/05/09 12:18:04;;;;;;;12.80;11.50;;;21.00;99.90;;;;;;4982801;28;20046;-77
2023/05/09 12:20:44;;;;;;;12.18;10.98;;;21.00;99.90;;;;;;4987102;28;20080;-78
2023/05/09 12:23:13;;;;;;;12.50;11.15;;;20.90;99.90;;;;;;4982550;28;20561;-78
2023/05/09 12:25:46;;;;;;;12.63;11.32;;;21.00;99.90;;;;;;4982729;28;20429;-78